sensor_id;sensor_type;location;lat;lon;timestamp;P1;durP1;ratioP1;P2;durP2;ratioP2
34521;SDS011;25561;48.888;8.736;2022-11-15T06:49:43;7.05;;;3.25;;
34521;SDS011;25561;48.888;8.736;2022-11-15T06:52:45;5.07;;;2.40;;
34521;SDS011;25561;48.888;8.736;2022-11-15T06:55:47;7.95;;;2.90;;
34521;SDS011;25561;48.888;8.736;2022-11-15T06:58:55;3.30;;;2.13;;
34521;SDS011;25561;48.888;8.736;2022-11-15T07:01:57;4.43;;;2.50;;
34521;SDS011;25561;48.888;8.736;2022-11-15T07:04:59;7.57;;;2.50;;
34521;SDS011;25561;48.888;8.736;2022-11-15T07:08:01;3.05;;;2.33;;
34521;SDS011;25561;48.888;8.736;2022-11-15T07:11:04;5.60;;;2.90;;
34521;SDS011;25561;48.888;8.736;2022-11-15T07:17:10;4.68;;;2.40;;
34521;SDS011;25561;48.888;8.736;2022-11-15T07:20:13;6.95;;;2.65;;
34521;SDS011;25561;48.888;8.736;2022-11-15T07:23:15;5.65;;;2.28;;
34521;SDS011;25561;48.888;8.736;2022-11-15T07:26:18;3.83;;;2.10;;
34521;SDS011;25561;48.888;8.736;2022-11-15T07:29:21;6.47;;;2.50;;
34521;SDS011;25561;48.888;8.736;2022-11-15T07:32:23;4.53;;;2.20;;
34521;SDS011;25561;48.888;8.736;2022-11-15T07:35:27;3.72;;;2.33;;
34521;SDS011;25561;48.888;8.736;2022-11-15T07:38:30;5.43;;;2.45;;
34521;SDS011;25561;48.888;8.736;2022-11-15T07:41:33;3.63;;;2.38;;
34521;SDS011;25561;48.888;8.736;2022-11-15T07:44:35;6.45;;;2.47;;
34521;SDS011;25561;48.888;8.736;2022-11-15T07:47:37;5.88;;;2.40;;
34521;SDS011;25561;48.888;8.736;2022-11-15T07:50:40;4.88;;;2.03;;
34521;SDS011;25561;48.888;8.736;2022-11-15T07:53:43;4.63;;;2.30;;
34521;SDS011;25561;48.888;8.736;2022-11-15T07:56:46;4.70;;;2.20;;
34521;SDS011;25561;48.888;8.736;2022-11-15T07:59:48;4.05;;;2.40;;
34521;SDS011;25561;48.888;8.736;2022-11-15T08:02:49;5.25;;;2.05;;
34521;SDS011;25561;48.888;8.736;2022-11-15T08:05:51;3.58;;;1.95;;
34521;SDS011;25561;48.888;8.736;2022-11-15T08:08:54;6.15;;;2.10;;
34521;SDS011;25561;48.888;8.736;2022-11-15T08:11:56;4.18;;;1.90;;
34521;SDS011;25561;48.888;8.736;2022-11-15T08:14:58;7.13;;;2.03;;
34521;SDS011;25561;48.888;8.736;2022-11-15T08:18:01;3.95;;;2.08;;
34521;SDS011;25561;48.888;8.736;2022-11-15T08:21:05;5.63;;;2.00;;
34521;SDS011;25561;48.888;8.736;2022-11-15T08:24:08;6.30;;;2.08;;
34521;SDS011;25561;48.888;8.736;2022-11-15T08:27:12;3.80;;;1.98;;
34521;SDS011;25561;48.888;8.736;2022-11-15T08:30:16;4.60;;;2.30;;
34521;SDS011;25561;48.888;8.736;2022-11-15T08:33:18;5.75;;;2.22;;
34521;SDS011;25561;48.888;8.736;2022-11-15T08:36:20;3.85;;;1.92;;
34521;SDS011;25561;48.888;8.736;2022-11-15T08:39:22;5.78;;;2.30;;
34521;SDS011;25561;48.888;8.736;2022-11-15T08:42:24;10.38;;;2.40;;
34521;SDS011;25561;48.888;8.736;2022-11-15T08:45:26;6.47;;;2.03;;
34521;SDS011;25561;48.888;8.736;2022-11-15T08:48:27;3.25;;;2.13;;
34521;SDS011;25561;48.888;8.736;2022-11-15T08:51:30;6.45;;;2.25;;
34521;SDS011;25561;48.888;8.736;2022-11-15T08:54:32;3.25;;;1.73;;
34521;SDS011;25561;48.888;8.736;2022-11-15T08:57:35;4.05;;;1.65;;
34521;SDS011;25561;48.888;8.736;2022-11-15T09:00:38;6.80;;;1.95;;
34521;SDS011;25561;48.888;8.736;2022-11-15T09:03:40;5.60;;;2.08;;
34521;SDS011;25561;48.888;8.736;2022-11-15T09:06:51;2.90;;;2.00;;
34521;SDS011;25561;48.888;8.736;2022-11-15T09:09:55;3.92;;;1.90;;
34521;SDS011;25561;48.888;8.736;2022-11-15T09:13:21;3.00;;;1.73;;
34521;SDS011;25561;48.888;8.736;2022-11-15T09:16:23;5.35;;;2.03;;
34521;SDS011;25561;48.888;8.736;2022-11-15T09:19:24;3.95;;;1.90;;
34521;SDS011;25561;48.888;8.736;2022-11-15T09:22:26;4.18;;;1.92;;
34521;SDS011;25561;48.888;8.736;2022-11-15T09:25:30;3.95;;;1.77;;
34521;SDS011;25561;48.888;8.736;2022-11-15T09:28:32;3.47;;;2.15;;
34521;SDS011;25561;48.888;8.736;2022-11-15T09:31:36;2.53;;;1.48;;
34521;SDS011;25561;48.888;8.736;2022-11-15T09:34:38;4.07;;;1.83;;
34521;SDS011;25561;48.888;8.736;2022-11-15T09:37:40;3.85;;;1.80;;
34521;SDS011;25561;48.888;8.736;2022-11-15T09:40:42;6.60;;;2.10;;
34521;SDS011;25561;48.888;8.736;2022-11-15T09:43:57;5.60;;;1.27;;
34521;SDS011;25561;48.888;8.736;2022-11-15T09:50:42;3.08;;;1.58;;
34521;SDS011;25561;48.888;8.736;2022-11-15T09:53:52;4.80;;;2.03;;
34521;SDS011;25561;48.888;8.736;2022-11-15T09:57:30;4.32;;;1.50;;
34521;SDS011;25561;48.888;8.736;2022-11-15T10:00:42;4.45;;;1.70;;
34521;SDS011;25561;48.888;8.736;2022-11-15T10:03:50;4.85;;;1.70;;
34521;SDS011;25561;48.888;8.736;2022-11-15T10:06:55;4.15;;;1.58;;
34521;SDS011;25561;48.888;8.736;2022-11-15T10:10:23;3.20;;;1.42;;
34521;SDS011;25561;48.888;8.736;2022-11-15T10:13:46;2.13;;;1.63;;
34521;SDS011;25561;48.888;8.736;2022-11-15T10:20:28;5.63;;;1.60;;
34521;SDS011;25561;48.888;8.736;2022-11-15T10:23:31;8.82;;;1.85;;
34521;SDS011;25561;48.888;8.736;2022-11-15T10:26:33;2.38;;;1.42;;
34521;SDS011;25561;48.888;8.736;2022-11-15T10:29:35;4.05;;;1.73;;
34521;SDS011;25561;48.888;8.736;2022-11-15T10:32:44;3.45;;;1.50;;
34521;SDS011;25561;48.888;8.736;2022-11-15T10:35:47;4.93;;;1.65;;
34521;SDS011;25561;48.888;8.736;2022-11-15T10:41:52;2.70;;;1.58;;
34521;SDS011;25561;48.888;8.736;2022-11-15T10:44:55;2.55;;;1.38;;
34521;SDS011;25561;48.888;8.736;2022-11-15T10:51:24;3.50;;;1.60;;
34521;SDS011;25561;48.888;8.736;2022-11-15T10:54:34;6.63;;;1.90;;
34521;SDS011;25561;48.888;8.736;2022-11-15T10:57:39;8.00;;;1.50;;
34521;SDS011;25561;48.888;8.736;2022-11-15T11:00:49;3.72;;;1.70;;
34521;SDS011;25561;48.888;8.736;2022-11-15T11:04:03;4.60;;;1.80;;
34521;SDS011;25561;48.888;8.736;2022-11-15T11:07:08;8.60;;;1.92;;
34521;SDS011;25561;48.888;8.736;2022-11-15T11:10:24;5.25;;;2.10;;
34521;SDS011;25561;48.888;8.736;2022-11-15T11:13:46;13.27;;;4.65;;
34521;SDS011;25561;48.888;8.736;2022-11-15T11:16:53;8.57;;;4.75;;
34521;SDS011;25561;48.888;8.736;2022-11-15T11:20:02;12.55;;;5.32;;
34521;SDS011;25561;48.888;8.736;2022-11-15T11:23:59;8.82;;;4.70;;
34521;SDS011;25561;48.888;8.736;2022-11-15T11:27:12;11.27;;;4.88;;
34521;SDS011;25561;48.888;8.736;2022-11-15T11:30:22;11.15;;;4.50;;
34521;SDS011;25561;48.888;8.736;2022-11-15T11:37:04;9.55;;;4.07;;
34521;SDS011;25561;48.888;8.736;2022-11-15T11:40:30;16.55;;;5.68;;
34521;SDS011;25561;48.888;8.736;2022-11-15T11:43:45;14.05;;;5.57;;
34521;SDS011;25561;48.888;8.736;2022-11-15T11:47:11;11.50;;;5.13;;
34521;SDS011;25561;48.888;8.736;2022-11-15T11:50:19;19.38;;;6.68;;
34521;SDS011;25561;48.888;8.736;2022-11-15T11:53:34;8.10;;;4.38;;
34521;SDS011;25561;48.888;8.736;2022-11-15T11:56:57;7.88;;;4.05;;
34521;SDS011;25561;48.888;8.736;2022-11-15T12:00:04;11.48;;;4.72;;
34521;SDS011;25561;48.888;8.736;2022-11-15T12:03:22;8.00;;;3.42;;
34521;SDS011;25561;48.888;8.736;2022-11-15T12:06:49;6.68;;;3.13;;
34521;SDS011;25561;48.888;8.736;2022-11-15T12:13:25;5.70;;;3.20;;
34521;SDS011;25561;48.888;8.736;2022-11-15T12:16:29;7.83;;;3.00;;
34521;SDS011;25561;48.888;8.736;2022-11-15T12:19:33;13.70;;;3.83;;
34521;SDS011;25561;48.888;8.736;2022-11-15T12:22:38;8.57;;;3.50;;
34521;SDS011;25561;48.888;8.736;2022-11-15T12:26:04;9.15;;;4.20;;
34521;SDS011;25561;48.888;8.736;2022-11-15T12:29:12;9.73;;;3.92;;
34521;SDS011;25561;48.888;8.736;2022-11-15T12:32:37;11.02;;;4.47;;
34521;SDS011;25561;48.888;8.736;2022-11-15T12:35:41;10.65;;;4.40;;
34521;SDS011;25561;48.888;8.736;2022-11-15T12:39:00;9.90;;;4.32;;
34521;SDS011;25561;48.888;8.736;2022-11-15T12:45:24;22.23;;;4.47;;
34521;SDS011;25561;48.888;8.736;2022-11-15T12:52:08;21.92;;;4.90;;
34521;SDS011;25561;48.888;8.736;2022-11-15T12:55:00;10.15;;;4.00;;
34521;SDS011;25561;48.888;8.736;2022-11-15T12:58:26;11.68;;;4.25;;
34521;SDS011;25561;48.888;8.736;2022-11-15T13:04:33;14.30;;;4.82;;
34521;SDS011;25561;48.888;8.736;2022-11-15T13:10:43;8.63;;;3.67;;
34521;SDS011;25561;48.888;8.736;2022-11-15T13:13:45;16.73;;;4.53;;
34521;SDS011;25561;48.888;8.736;2022-11-15T13:16:47;5.50;;;2.40;;
34521;SDS011;25561;48.888;8.736;2022-11-15T13:19:56;9.93;;;2.33;;
34521;SDS011;25561;48.888;8.736;2022-11-15T13:23:07;6.07;;;2.45;;
34521;SDS011;25561;48.888;8.736;2022-11-15T13:26:13;2.78;;;2.05;;
34521;SDS011;25561;48.888;8.736;2022-11-15T13:29:18;4.50;;;1.92;;
34521;SDS011;25561;48.888;8.736;2022-11-15T13:32:21;3.22;;;2.15;;
34521;SDS011;25561;48.888;8.736;2022-11-15T13:35:24;6.15;;;2.10;;
34521;SDS011;25561;48.888;8.736;2022-11-15T13:38:29;9.13;;;4.20;;
34521;SDS011;25561;48.888;8.736;2022-11-15T13:41:34;5.25;;;1.98;;
34521;SDS011;25561;48.888;8.736;2022-11-15T13:44:37;7.85;;;2.97;;
34521;SDS011;25561;48.888;8.736;2022-11-15T13:47:39;10.00;;;4.15;;
34521;SDS011;25561;48.888;8.736;2022-11-15T13:50:41;2.58;;;1.70;;
34521;SDS011;25561;48.888;8.736;2022-11-15T13:53:44;3.60;;;1.50;;
34521;SDS011;25561;48.888;8.736;2022-11-15T13:56:52;2.72;;;1.40;;
34521;SDS011;25561;48.888;8.736;2022-11-15T13:59:57;2.42;;;1.33;;
34521;SDS011;25561;48.888;8.736;2022-11-15T14:03:05;2.85;;;1.40;;
34521;SDS011;25561;48.888;8.736;2022-11-15T14:06:16;2.33;;;1.50;;
34521;SDS011;25561;48.888;8.736;2022-11-15T14:09:25;3.63;;;1.70;;
34521;SDS011;25561;48.888;8.736;2022-11-15T14:12:32;3.88;;;1.77;;
34521;SDS011;25561;48.888;8.736;2022-11-15T14:15:36;4.57;;;1.67;;
34521;SDS011;25561;48.888;8.736;2022-11-15T14:18:40;4.22;;;1.65;;
34521;SDS011;25561;48.888;8.736;2022-11-15T14:25:14;4.00;;;1.42;;
34521;SDS011;25561;48.888;8.736;2022-11-15T14:31:25;2.92;;;1.92;;
34521;SDS011;25561;48.888;8.736;2022-11-15T14:34:26;6.10;;;1.67;;
34521;SDS011;25561;48.888;8.736;2022-11-15T14:37:30;3.63;;;1.40;;
34521;SDS011;25561;48.888;8.736;2022-11-15T14:40:35;2.25;;;1.40;;
34521;SDS011;25561;48.888;8.736;2022-11-15T14:43:37;3.10;;;1.17;;
34521;SDS011;25561;48.888;8.736;2022-11-15T14:46:38;5.85;;;1.60;;
34521;SDS011;25561;48.888;8.736;2022-11-15T14:49:41;4.07;;;1.50;;
34521;SDS011;25561;48.888;8.736;2022-11-15T14:52:43;6.40;;;2.03;;
34521;SDS011;25561;48.888;8.736;2022-11-15T14:55:45;4.10;;;1.80;;
34521;SDS011;25561;48.888;8.736;2022-11-15T14:58:47;5.85;;;1.92;;
34521;SDS011;25561;48.888;8.736;2022-11-15T15:01:49;8.15;;;3.08;;
34521;SDS011;25561;48.888;8.736;2022-11-15T15:04:50;3.88;;;2.13;;
34521;SDS011;25561;48.888;8.736;2022-11-15T15:07:52;6.65;;;3.55;;
34521;SDS011;25561;48.888;8.736;2022-11-15T15:10:54;5.07;;;2.10;;
34521;SDS011;25561;48.888;8.736;2022-11-15T15:13:56;3.88;;;1.95;;
34521;SDS011;25561;48.888;8.736;2022-11-15T15:17:01;6.85;;;2.03;;
34521;SDS011;25561;48.888;8.736;2022-11-15T15:20:03;10.10;;;2.53;;
34521;SDS011;25561;48.888;8.736;2022-11-15T15:23:05;7.00;;;2.72;;
34521;SDS011;25561;48.888;8.736;2022-11-15T15:26:06;5.22;;;2.60;;
34521;SDS011;25561;48.888;8.736;2022-11-15T15:29:09;5.15;;;2.45;;
34521;SDS011;25561;48.888;8.736;2022-11-15T15:32:11;4.82;;;2.10;;
34521;SDS011;25561;48.888;8.736;2022-11-15T15:35:15;5.00;;;2.05;;
34521;SDS011;25561;48.888;8.736;2022-11-15T15:38:18;7.65;;;2.08;;
34521;SDS011;25561;48.888;8.736;2022-11-15T15:41:20;5.85;;;2.33;;
34521;SDS011;25561;48.888;8.736;2022-11-15T15:44:22;5.03;;;2.35;;
34521;SDS011;25561;48.888;8.736;2022-11-15T15:47:24;5.32;;;2.45;;
34521;SDS011;25561;48.888;8.736;2022-11-15T15:50:28;8.15;;;2.20;;
34521;SDS011;25561;48.888;8.736;2022-11-15T15:53:33;3.97;;;2.30;;
34521;SDS011;25561;48.888;8.736;2022-11-15T15:56:35;6.32;;;2.42;;
34521;SDS011;25561;48.888;8.736;2022-11-15T15:59:37;5.20;;;2.70;;
34521;SDS011;25561;48.888;8.736;2022-11-15T16:02:39;4.60;;;2.40;;
34521;SDS011;25561;48.888;8.736;2022-11-15T16:05:41;4.28;;;2.40;;
34521;SDS011;25561;48.888;8.736;2022-11-15T16:08:43;6.03;;;2.45;;
34521;SDS011;25561;48.888;8.736;2022-11-15T16:12:05;6.63;;;2.78;;
34521;SDS011;25561;48.888;8.736;2022-11-15T16:15:07;6.65;;;2.67;;
34521;SDS011;25561;48.888;8.736;2022-11-15T16:18:12;7.93;;;2.60;;
34521;SDS011;25561;48.888;8.736;2022-11-15T16:21:17;4.85;;;2.50;;
34521;SDS011;25561;48.888;8.736;2022-11-15T16:24:19;3.90;;;2.28;;
34521;SDS011;25561;48.888;8.736;2022-11-15T16:27:21;6.45;;;2.83;;
34521;SDS011;25561;48.888;8.736;2022-11-15T16:30:24;4.57;;;2.00;;
34521;SDS011;25561;48.888;8.736;2022-11-15T16:33:25;6.43;;;2.78;;
34521;SDS011;25561;48.888;8.736;2022-11-15T16:36:29;7.30;;;2.60;;
34521;SDS011;25561;48.888;8.736;2022-11-15T16:39:33;6.15;;;2.70;;
34521;SDS011;25561;48.888;8.736;2022-11-15T16:42:35;3.72;;;2.50;;
34521;SDS011;25561;48.888;8.736;2022-11-15T16:45:36;4.05;;;2.40;;
34521;SDS011;25561;48.888;8.736;2022-11-15T16:48:38;11.95;;;2.83;;
34521;SDS011;25561;48.888;8.736;2022-11-15T16:51:40;7.00;;;2.55;;
34521;SDS011;25561;48.888;8.736;2022-11-15T16:54:45;5.60;;;2.30;;
34521;SDS011;25561;48.888;8.736;2022-11-15T16:57:47;4.57;;;2.25;;
